sensor_id;sensor_type;location;lat;lon;timestamp;pressure;altitude;pressure_sealevel;temperature;humidity
69909;BME280;57190;47.918;8.112;2023-04-20T00:02:20;90548.47;;;2.22;80.45
69909;BME280;57190;47.918;8.112;2023-04-20T00:04:46;90550.34;;;2.14;79.75
69909;BME280;57190;47.918;8.112;2023-04-20T00:07:11;90545.69;;;2.16;80.35
69909;BME280;57190;47.918;8.112;2023-04-20T00:09:37;90533.66;;;2.09;81.56
69909;BME280;57190;47.918;8.112;2023-04-20T00:12:03;90529.41;;;2.08;81.42
69909;BME280;57190;47.918;8.112;2023-04-20T00:14:29;90531.22;;;2.07;81.56
69909;BME280;57190;47.918;8.112;2023-04-20T00:16:54;90529.84;;;2.04;81.19
69909;BME280;57190;47.918;8.112;2023-04-20T00:19:20;90533.06;;;2.07;81.61
69909;BME280;57190;47.918;8.112;2023-04-20T00:21:46;90521.06;;;2.11;81.73
69909;BME280;57190;47.918;8.112;2023-04-20T00:24:12;90518.44;;;2.11;82.01
69909;BME280;57190;47.918;8.112;2023-04-20T00:26:37;90508.72;;;2.11;81.26
69909;BME280;57190;47.918;8.112;2023-04-20T00:29:03;90506.88;;;2.12;82.07
69909;BME280;57190;47.918;8.112;2023-04-20T00:31:30;90513.50;;;2.14;82.24
69909;BME280;57190;47.918;8.112;2023-04-20T00:33:55;90498.47;;;2.22;82.02
69909;BME280;57190;47.918;8.112;2023-04-20T00:36:21;90505.75;;;2.19;82.58
69909;BME280;57190;47.918;8.112;2023-04-20T00:38:46;90485.75;;;2.18;81.89
69909;BME280;57190;47.918;8.112;2023-04-20T00:41:12;90480.00;;;2.10;82.11
69909;BME280;57190;47.918;8.112;2023-04-20T00:43:51;90480.81;;;2.10;82.33
69909;BME280;57190;47.918;8.112;2023-04-20T00:46:17;90484.00;;;2.12;81.41
69909;BME280;57190;47.918;8.112;2023-04-20T00:48:43;90477.16;;;2.11;82.04
69909;BME280;57190;47.918;8.112;2023-04-20T00:51:09;90475.66;;;2.15;82.53
69909;BME280;57190;47.918;8.112;2023-04-20T00:53:35;90470.53;;;2.20;82.00
69909;BME280;57190;47.918;8.112;2023-04-20T00:56:01;90472.69;;;2.24;82.83
69909;BME280;57190;47.918;8.112;2023-04-20T00:58:27;90469.38;;;2.28;82.60
69909;BME280;57190;47.918;8.112;2023-04-20T01:00:52;90454.63;;;2.27;82.80
69909;BME280;57190;47.918;8.112;2023-04-20T01:03:18;90444.66;;;2.17;82.86
69909;BME280;57190;47.918;8.112;2023-04-20T01:05:44;90442.94;;;2.11;83.14
69909;BME280;57190;47.918;8.112;2023-04-20T01:08:09;90440.88;;;2.13;83.56
69909;BME280;57190;47.918;8.112;2023-04-20T01:10:35;90446.84;;;2.20;82.83
69909;BME280;57190;47.918;8.112;2023-04-20T01:13:01;90451.97;;;2.27;82.68
69909;BME280;57190;47.918;8.112;2023-04-20T01:15:27;90447.06;;;2.31;82.05
69909;BME280;57190;47.918;8.112;2023-04-20T01:17:53;90434.81;;;2.25;82.03
69909;BME280;57190;47.918;8.112;2023-04-20T01:20:18;90435.16;;;2.28;82.07
69909;BME280;57190;47.918;8.112;2023-04-20T01:22:49;90429.69;;;2.18;82.82
69909;BME280;57190;47.918;8.112;2023-04-20T01:25:16;90424.97;;;2.20;82.33
69909;BME280;57190;47.918;8.112;2023-04-20T01:27:42;90425.31;;;2.24;81.87
69909;BME280;57190;47.918;8.112;2023-04-20T01:30:09;90424.09;;;2.26;82.22
69909;BME280;57190;47.918;8.112;2023-04-20T01:32:34;90414.94;;;2.29;81.98
69909;BME280;57190;47.918;8.112;2023-04-20T01:35:00;90408.84;;;2.16;82.95
69909;BME280;57190;47.918;8.112;2023-04-20T01:37:26;90411.81;;;2.08;82.37
69909;BME280;57190;47.918;8.112;2023-04-20T01:39:51;90408.16;;;2.21;81.99
69909;BME280;57190;47.918;8.112;2023-04-20T01:42:17;90403.22;;;2.13;82.43
69909;BME280;57190;47.918;8.112;2023-04-20T01:44:43;90397.63;;;2.09;82.56
69909;BME280;57190;47.918;8.112;2023-04-20T01:47:08;90402.44;;;2.12;82.26
69909;BME280;57190;47.918;8.112;2023-04-20T01:49:34;90402.44;;;2.12;81.88
69909;BME280;57190;47.918;8.112;2023-04-20T01:51:59;90402.44;;;2.12;81.38
69909;BME280;57190;47.918;8.112;2023-04-20T01:54:25;90411.13;;;2.13;81.93
69909;BME280;57190;47.918;8.112;2023-04-20T01:56:50;90411.38;;;2.11;81.36
69909;BME280;57190;47.918;8.112;2023-04-20T01:59:16;90401.06;;;2.10;81.33
69909;BME280;57190;47.918;8.112;2023-04-20T02:01:41;90389.03;;;2.02;81.65
69909;BME280;57190;47.918;8.112;2023-04-20T02:04:07;90381.72;;;2.04;80.30
69909;BME280;57190;47.918;8.112;2023-04-20T02:06:33;90385.63;;;2.01;80.46
69909;BME280;57190;47.918;8.112;2023-04-20T02:08:58;90388.47;;;2.00;81.40
69909;BME280;57190;47.918;8.112;2023-04-20T02:11:24;90383.19;;;2.00;80.79
69909;BME280;57190;47.918;8.112;2023-04-20T02:13:50;90390.31;;;1.99;80.14
69909;BME280;57190;47.918;8.112;2023-04-20T02:16:16;90382.63;;;1.98;80.50
69909;BME280;57190;47.918;8.112;2023-04-20T02:18:43;90383.44;;;1.98;80.88
69909;BME280;57190;47.918;8.112;2023-04-20T02:21:10;90373.94;;;1.97;81.02
69909;BME280;57190;47.918;8.112;2023-04-20T02:23:36;90367.31;;;1.95;81.38
69909;BME280;57190;47.918;8.112;2023-04-20T02:26:01;90359.16;;;1.84;82.09
69909;BME280;57190;47.918;8.112;2023-04-20T02:28:27;90357.66;;;1.77;83.00
69909;BME280;57190;47.918;8.112;2023-04-20T02:30:52;90349.31;;;1.68;83.30
69909;BME280;57190;47.918;8.112;2023-04-20T02:33:18;90347.38;;;1.75;83.34
69909;BME280;57190;47.918;8.112;2023-04-20T02:35:45;90343.63;;;1.83;83.15
69909;BME280;57190;47.918;8.112;2023-04-20T02:38:11;90342.94;;;1.87;82.50
69909;BME280;57190;47.918;8.112;2023-04-20T02:40:36;90336.19;;;1.92;81.84
69909;BME280;57190;47.918;8.112;2023-04-20T02:43:01;90329.13;;;1.92;81.89
69909;BME280;57190;47.918;8.112;2023-04-20T02:45:27;90331.84;;;1.85;82.24
69909;BME280;57190;47.918;8.112;2023-04-20T02:47:53;90333.78;;;1.78;82.32
69909;BME280;57190;47.918;8.112;2023-04-20T02:50:18;90326.25;;;1.82;82.34
69909;BME280;57190;47.918;8.112;2023-04-20T02:52:43;90323.97;;;1.85;81.91
69909;BME280;57190;47.918;8.112;2023-04-20T02:55:09;90330.25;;;1.84;82.05
69909;BME280;57190;47.918;8.112;2023-04-20T02:57:35;90335.59;;;1.89;82.26
69909;BME280;57190;47.918;8.112;2023-04-20T03:00:01;90329.66;;;1.82;82.53
69909;BME280;57190;47.918;8.112;2023-04-20T03:02:26;90328.06;;;1.81;82.43
69909;BME280;57190;47.918;8.112;2023-04-20T03:04:52;90324.63;;;1.81;82.33
69909;BME280;57190;47.918;8.112;2023-04-20T03:07:17;90324.06;;;1.79;82.13
69909;BME280;57190;47.918;8.112;2023-04-20T03:09:43;90312.41;;;1.86;81.75
69909;BME280;57190;47.918;8.112;2023-04-20T03:12:08;90308.84;;;1.81;82.46
69909;BME280;57190;47.918;8.112;2023-04-20T03:14:34;90311.84;;;1.84;82.72
69909;BME280;57190;47.918;8.112;2023-04-20T03:17:00;90310.81;;;1.85;82.42
69909;BME280;57190;47.918;8.112;2023-04-20T03:19:26;90305.78;;;1.84;82.19
69909;BME280;57190;47.918;8.112;2023-04-20T03:21:52;90315.50;;;1.83;81.80
69909;BME280;57190;47.918;8.112;2023-04-20T03:24:17;90313.00;;;1.88;82.43
69909;BME280;57190;47.918;8.112;2023-04-20T03:26:43;90312.06;;;1.95;82.23
69909;BME280;57190;47.918;8.112;2023-04-20T03:29:09;90306.13;;;1.87;82.50
69909;BME280;57190;47.918;8.112;2023-04-20T03:31:34;90304.03;;;1.89;81.24
69909;BME280;57190;47.918;8.112;2023-04-20T03:34:00;90302.22;;;1.90;81.71
69909;BME280;57190;47.918;8.112;2023-04-20T03:36:25;90304.03;;;1.89;81.68
69909;BME280;57190;47.918;8.112;2023-04-20T03:38:52;90305.66;;;1.91;81.92
69909;BME280;57190;47.918;8.112;2023-04-20T03:41:18;90302.00;;;1.92;81.54
69909;BME280;57190;47.918;8.112;2023-04-20T03:43:44;90300.53;;;1.96;81.61
69909;BME280;57190;47.918;8.112;2023-04-20T03:46:09;90294.22;;;1.85;81.45
69909;BME280;57190;47.918;8.112;2023-04-20T03:48:35;90297.75;;;1.91;81.52
69909;BME280;57190;47.918;8.112;2023-04-20T03:51:00;90297.56;;;1.80;81.31
69909;BME280;57190;47.918;8.112;2023-04-20T03:53:26;90291.72;;;1.78;81.23
69909;BME280;57190;47.918;8.112;2023-04-20T03:55:53;90291.81;;;1.83;81.37
69909;BME280;57190;47.918;8.112;2023-04-20T03:58:19;90284.84;;;1.77;81.98
69909;BME280;57190;47.918;8.112;2023-04-20T04:00:45;90285.19;;;1.81;81.62
69909;BME280;57190;47.918;8.112;2023-04-20T04:03:11;90282.22;;;1.77;81.98
69909;BME280;57190;47.918;8.112;2023-04-20T04:05:36;90279.81;;;1.76;82.36
69909;BME280;57190;47.918;8.112;2023-04-20T04:08:02;90275.94;;;1.78;81.35
69909;BME280;57190;47.918;8.112;2023-04-20T04:10:28;90278.44;;;1.73;81.12
69909;BME280;57190;47.918;8.112;2023-04-20T04:12:53;90276.13;;;1.77;81.77
69909;BME280;57190;47.918;8.112;2023-04-20T04:15:19;90284.16;;;1.82;80.94
69909;BME280;57190;47.918;8.112;2023-04-20T04:17:44;90280.16;;;1.79;81.42
69909;BME280;57190;47.918;8.112;2023-04-20T04:20:10;90279.00;;;1.87;80.97
69909;BME280;57190;47.918;8.112;2023-04-20T04:22:36;90277.75;;;1.78;82.10
69909;BME280;57190;47.918;8.112;2023-04-20T04:25:03;90281.97;;;1.79;81.41
69909;BME280;57190;47.918;8.112;2023-04-20T04:27:28;90280.50;;;1.71;82.12
69909;BME280;57190;47.918;8.112;2023-04-20T04:29:59;90279.59;;;1.77;81.98
69909;BME280;57190;47.918;8.112;2023-04-20T04:32:25;90279.16;;;1.80;81.40
69909;BME280;57190;47.918;8.112;2023-04-20T04:34:51;90282.78;;;1.79;81.75
69909;BME280;57190;47.918;8.112;2023-04-20T04:37:17;90289.66;;;1.80;82.16
69909;BME280;57190;47.918;8.112;2023-04-20T04:39:43;90273.66;;;1.82;81.54
69909;BME280;57190;47.918;8.112;2023-04-20T04:42:08;90279.47;;;1.84;81.53
69909;BME280;57190;47.918;8.112;2023-04-20T04:44:34;90272.97;;;1.86;80.97
69909;BME280;57190;47.918;8.112;2023-04-20T04:47:01;90277.63;;;1.84;81.87
69909;BME280;57190;47.918;8.112;2023-04-20T04:49:27;90264.59;;;1.78;81.89
69909;BME280;57190;47.918;8.112;2023-04-20T04:51:54;90274.22;;;1.84;81.59
69909;BME280;57190;47.918;8.112;2023-04-20T04:54:20;90268.72;;;1.85;81.74
69909;BME280;57190;47.918;8.112;2023-04-20T04:56:45;90263.72;;;1.84;82.10
69909;BME280;57190;47.918;8.112;2023-04-20T04:59:11;90260.25;;;1.83;81.22
69909;BME280;57190;47.918;8.112;2023-04-20T05:01:36;90263.81;;;1.89;80.84
69909;BME280;57190;47.918;8.112;2023-04-20T05:04:02;90269.31;;;1.87;80.82
69909;BME280;57190;47.918;8.112;2023-04-20T05:06:27;90270.31;;;1.86;81.07
69909;BME280;57190;47.918;8.112;2023-04-20T05:08:53;90264.03;;;1.87;81.44
69909;BME280;57190;47.918;8.112;2023-04-20T05:11:18;90267.34;;;1.83;81.05
69909;BME280;57190;47.918;8.112;2023-04-20T05:13:44;90273.66;;;1.82;81.03
69909;BME280;57190;47.918;8.112;2023-04-20T05:16:09;90267.81;;;1.80;81.22
69909;BME280;57190;47.918;8.112;2023-04-20T05:25:23;90276.16;;;1.88;80.33
69909;BME280;57190;47.918;8.112;2023-04-20T05:27:48;90275.34;;;1.88;81.72
69909;BME280;57190;47.918;8.112;2023-04-20T05:30:14;90261.75;;;1.91;80.55
69909;BME280;57190;47.918;8.112;2023-04-20T05:32:39;90265.66;;;1.88;81.36
69909;BME280;57190;47.918;8.112;2023-04-20T05:35:05;90273.41;;;1.83;80.49
69909;BME280;57190;47.918;8.112;2023-04-20T05:37:31;90268.38;;;1.82;80.81
69909;BME280;57190;47.918;8.112;2023-04-20T05:39:57;90270.44;;;1.92;81.19
69909;BME280;57190;47.918;8.112;2023-04-20T05:42:22;90264.72;;;1.83;80.20
69909;BME280;57190;47.918;8.112;2023-04-20T05:44:48;90269.06;;;1.77;80.84
69909;BME280;57190;47.918;8.112;2023-04-20T05:47:13;90269.06;;;1.77;80.60
69909;BME280;57190;47.918;8.112;2023-04-20T05:49:39;90272.72;;;1.88;80.77
69909;BME280;57190;47.918;8.112;2023-04-20T05:52:04;90269.50;;;1.74;80.56
69909;BME280;57190;47.918;8.112;2023-04-20T05:54:30;90277.88;;;1.83;80.83
69909;BME280;57190;47.918;8.112;2023-04-20T05:56:56;90279.25;;;1.85;80.89
69909;BME280;57190;47.918;8.112;2023-04-20T05:59:25;90276.03;;;1.83;80.92
69909;BME280;57190;47.918;8.112;2023-04-20T06:01:51;90273.16;;;1.85;81.54
69909;BME280;57190;47.918;8.112;2023-04-20T06:04:17;90268.16;;;1.83;80.45
69909;BME280;57190;47.918;8.112;2023-04-20T06:06:43;90270.00;;;1.83;80.77
69909;BME280;57190;47.918;8.112;2023-04-20T06:09:08;90271.47;;;1.79;81.13
69909;BME280;57190;47.918;8.112;2023-04-20T06:11:34;90276.28;;;1.82;81.34
69909;BME280;57190;47.918;8.112;2023-04-20T06:14:00;90271.00;;;1.70;81.15
69909;BME280;57190;47.918;8.112;2023-04-20T06:16:25;90266.78;;;1.69;81.99
69909;BME280;57190;47.918;8.112;2023-04-20T06:18:51;90262.88;;;1.83;81.29
69909;BME280;57190;47.918;8.112;2023-04-20T06:21:16;90272.38;;;1.84;81.74
69909;BME280;57190;47.918;8.112;2023-04-20T06:23:42;90264.25;;;1.74;81.17
69909;BME280;57190;47.918;8.112;2023-04-20T06:26:09;90261.06;;;1.72;81.55
69909;BME280;57190;47.918;8.112;2023-04-20T06:28:35;90260.38;;;1.77;80.80
69909;BME280;57190;47.918;8.112;2023-04-20T06:31:02;90256.50;;;1.79;81.25
69909;BME280;57190;47.918;8.112;2023-04-20T06:33:28;90261.06;;;1.84;80.42
69909;BME280;57190;47.918;8.112;2023-04-20T06:35:54;90261.19;;;1.77;81.01
69909;BME280;57190;47.918;8.112;2023-04-20T06:38:23;90257.97;;;1.87;80.84
69909;BME280;57190;47.918;8.112;2023-04-20T06:40:50;90264.25;;;1.86;80.30
69909;BME280;57190;47.918;8.112;2023-04-20T06:43:16;90267.81;;;1.92;80.45
69909;BME280;57190;47.918;8.112;2023-04-20T06:45:41;90262.78;;;1.90;79.80
69909;BME280;57190;47.918;8.112;2023-04-20T06:48:07;90268.38;;;1.94;79.96
69909;BME280;57190;47.918;8.112;2023-04-20T06:50:33;90269.97;;;1.95;79.80
69909;BME280;57190;47.918;8.112;2023-04-20T06:52:58;90266.53;;;1.94;79.92
69909;BME280;57190;47.918;8.112;2023-04-20T06:55:24;90270.09;;;2.00;79.21
69909;BME280;57190;47.918;8.112;2023-04-20T06:57:49;90272.94;;;1.98;79.62
69909;BME280;57190;47.918;8.112;2023-04-20T07:00:15;90269.41;;;2.04;79.44
69909;BME280;57190;47.918;8.112;2023-04-20T07:02:49;90266.06;;;2.09;79.68
69909;BME280;57190;47.918;8.112;2023-04-20T07:05:15;90259.00;;;2.10;78.32
69909;BME280;57190;47.918;8.112;2023-04-20T07:07:41;90261.25;;;2.06;79.19
69909;BME280;57190;47.918;8.112;2023-04-20T07:10:08;90262.75;;;2.14;78.52
69909;BME280;57190;47.918;8.112;2023-04-20T07:12:35;90262.84;;;2.19;78.98
69909;BME280;57190;47.918;8.112;2023-04-20T07:15:05;90257.81;;;2.17;78.55
69909;BME280;57190;47.918;8.112;2023-04-20T07:17:31;90271.22;;;2.16;78.85
69909;BME280;57190;47.918;8.112;2023-04-20T07:19:57;90259.34;;;2.13;79.38
69909;BME280;57190;47.918;8.112;2023-04-20T07:22:30;90264.03;;;2.11;79.97
69909;BME280;57190;47.918;8.112;2023-04-20T07:24:56;90261.97;;;2.13;79.56
69909;BME280;57190;47.918;8.112;2023-04-20T07:27:21;90259.88;;;2.15;79.06
69909;BME280;57190;47.918;8.112;2023-04-20T07:29:47;90260.13;;;2.14;79.53
69909;BME280;57190;47.918;8.112;2023-04-20T07:32:12;90258.28;;;2.14;79.58
69909;BME280;57190;47.918;8.112;2023-04-20T07:34:38;90257.94;;;2.11;78.77
69909;BME280;57190;47.918;8.112;2023-04-20T07:37:04;90260.00;;;2.20;78.37
69909;BME280;57190;47.918;8.112;2023-04-20T07:39:29;90258.75;;;2.11;78.88
69909;BME280;57190;47.918;8.112;2023-04-20T07:41:55;90257.91;;;2.23;79.49
69909;BME280;57190;47.918;8.112;2023-04-20T07:44:21;90256.09;;;2.35;78.96
69909;BME280;57190;47.918;8.112;2023-04-20T07:46:47;90248.28;;;2.40;78.57
69909;BME280;57190;47.918;8.112;2023-04-20T07:49:14;90249.34;;;2.39;78.38
69909;BME280;57190;47.918;8.112;2023-04-20T07:51:40;90249.34;;;2.39;78.67
69909;BME280;57190;47.918;8.112;2023-04-20T07:54:05;90257.19;;;2.51;78.42
69909;BME280;57190;47.918;8.112;2023-04-20T07:56:32;90251.34;;;2.49;78.39
69909;BME280;57190;47.918;8.112;2023-04-20T07:58:57;90250.88;;;2.52;77.62
69909;BME280;57190;47.918;8.112;2023-04-20T08:01:23;90252.19;;;2.38;77.53
69909;BME280;57190;47.918;8.112;2023-04-20T08:03:49;90248.63;;;2.32;78.20
69909;BME280;57190;47.918;8.112;2023-04-20T08:06:15;90253.44;;;2.35;78.82
69909;BME280;57190;47.918;8.112;2023-04-20T08:08:41;90255.16;;;2.41;77.71
69909;BME280;57190;47.918;8.112;2023-04-20T08:11:07;90252.06;;;2.44;77.63
69909;BME280;57190;47.918;8.112;2023-04-20T08:13:32;90243.59;;;2.42;77.67
69909;BME280;57190;47.918;8.112;2023-04-20T08:15:58;90242.69;;;2.36;77.81
69909;BME280;57190;47.918;8.112;2023-04-20T08:18:24;90245.47;;;2.30;78.21
69909;BME280;57190;47.918;8.112;2023-04-20T08:20:49;90244.19;;;2.32;78.12
69909;BME280;57190;47.918;8.112;2023-04-20T08:23:15;90241.22;;;2.29;78.22
69909;BME280;57190;47.918;8.112;2023-04-20T08:25:41;90243.31;;;2.15;77.90
69909;BME280;57190;47.918;8.112;2023-04-20T08:28:07;90238.84;;;2.15;78.65
69909;BME280;57190;47.918;8.112;2023-04-20T08:30:32;90238.63;;;2.17;78.69
69909;BME280;57190;47.918;8.112;2023-04-20T08:32:58;90238.28;;;2.13;78.85
69909;BME280;57190;47.918;8.112;2023-04-20T08:35:23;90228.09;;;2.17;78.25
69909;BME280;57190;47.918;8.112;2023-04-20T08:37:49;90227.75;;;2.25;78.97
69909;BME280;57190;47.918;8.112;2023-04-20T08:40:16;90233.09;;;2.30;78.72
69909;BME280;57190;47.918;8.112;2023-04-20T08:42:44;90231.50;;;2.29;77.67
69909;BME280;57190;47.918;8.112;2023-04-20T08:45:11;90230.47;;;2.30;78.81
69909;BME280;57190;47.918;8.112;2023-04-20T08:47:37;90232.63;;;2.33;78.84
69909;BME280;57190;47.918;8.112;2023-04-20T08:50:04;90235.59;;;2.37;78.63
69909;BME280;57190;47.918;8.112;2023-04-20T08:52:30;90233.09;;;2.30;79.11
69909;BME280;57190;47.918;8.112;2023-04-20T08:54:56;90226.56;;;2.33;78.38
69909;BME280;57190;47.918;8.112;2023-04-20T08:57:22;90230.44;;;2.42;78.79
69909;BME280;57190;47.918;8.112;2023-04-20T08:59:47;90226.75;;;2.43;79.00
69909;BME280;57190;47.918;8.112;2023-04-20T09:02:13;90232.59;;;2.45;78.21
69909;BME280;57190;47.918;8.112;2023-04-20T09:04:39;90238.31;;;2.42;78.16
69909;BME280;57190;47.918;8.112;2023-04-20T09:07:06;90238.19;;;2.49;77.54
69909;BME280;57190;47.918;8.112;2023-04-20T09:09:31;90232.19;;;2.65;78.31
69909;BME280;57190;47.918;8.112;2023-04-20T09:12:07;90232.00;;;2.84;77.63
69909;BME280;57190;47.918;8.112;2023-04-20T09:14:44;90232.72;;;2.79;77.40
69909;BME280;57190;47.918;8.112;2023-04-20T09:17:12;90219.16;;;2.88;76.31
69909;BME280;57190;47.918;8.112;2023-04-20T09:19:39;90221.41;;;2.96;76.57
69909;BME280;57190;47.918;8.112;2023-04-20T09:22:05;90221.66;;;3.11;77.05
69909;BME280;57190;47.918;8.112;2023-04-20T09:24:38;90227.91;;;3.22;75.63
69909;BME280;57190;47.918;8.112;2023-04-20T09:27:14;90220.78;;;3.06;74.95
69909;BME280;57190;47.918;8.112;2023-04-20T09:29:40;90217.91;;;3.07;74.87
69909;BME280;57190;47.918;8.112;2023-04-20T09:32:06;90214.56;;;3.12;75.74
69909;BME280;57190;47.918;8.112;2023-04-20T09:34:41;90228.94;;;3.21;75.06
69909;BME280;57190;47.918;8.112;2023-04-20T09:37:08;90221.91;;;3.27;74.54
69909;BME280;57190;47.918;8.112;2023-04-20T09:39:36;90210.66;;;3.32;75.29
69909;BME280;57190;47.918;8.112;2023-04-20T09:42:06;90206.03;;;3.39;74.87
69909;BME280;57190;47.918;8.112;2023-04-20T09:44:37;90198.28;;;3.49;74.52
69909;BME280;57190;47.918;8.112;2023-04-20T09:47:02;90191.72;;;3.69;73.93
69909;BME280;57190;47.918;8.112;2023-04-20T09:49:28;90191.06;;;3.78;74.12
69909;BME280;57190;47.918;8.112;2023-04-20T09:51:54;90202.09;;;3.75;73.17
69909;BME280;57190;47.918;8.112;2023-04-20T09:54:21;90203.69;;;3.76;72.78
69909;BME280;57190;47.918;8.112;2023-04-20T09:56:48;90203.78;;;3.82;73.77
69909;BME280;57190;47.918;8.112;2023-04-20T09:59:16;90192.25;;;3.88;73.94
69909;BME280;57190;47.918;8.112;2023-04-20T10:01:43;90187.03;;;3.93;73.58
69909;BME280;57190;47.918;8.112;2023-04-20T10:04:09;90192.31;;;3.93;74.48
69909;BME280;57190;47.918;8.112;2023-04-20T10:06:36;90197.09;;;3.96;74.70
69909;BME280;57190;47.918;8.112;2023-04-20T10:09:04;90197.66;;;3.98;73.23
69909;BME280;57190;47.918;8.112;2023-04-20T10:11:36;90194.06;;;3.65;74.64
69909;BME280;57190;47.918;8.112;2023-04-20T10:14:15;90197.94;;;3.62;74.38
69909;BME280;57190;47.918;8.112;2023-04-20T10:16:44;90203.16;;;3.57;75.82
69909;BME280;57190;47.918;8.112;2023-04-20T10:19:11;90206.09;;;3.61;75.20
69909;BME280;57190;47.918;8.112;2023-04-20T10:21:50;90204.84;;;3.46;74.07
69909;BME280;57190;47.918;8.112;2023-04-20T10:24:28;90219.72;;;3.36;76.29
69909;BME280;57190;47.918;8.112;2023-04-20T10:26:53;90224.22;;;3.40;75.73
69909;BME280;57190;47.918;8.112;2023-04-20T10:29:26;90222.56;;;3.34;76.18
69909;BME280;57190;47.918;8.112;2023-04-20T10:31:53;90218.75;;;3.42;75.51
69909;BME280;57190;47.918;8.112;2023-04-20T10:34:32;90213.44;;;3.25;76.53
69909;BME280;57190;47.918;8.112;2023-04-20T10:37:07;90224.88;;;3.13;77.00
69909;BME280;57190;47.918;8.112;2023-04-20T10:39:34;90208.03;;;3.14;76.88
69909;BME280;57190;47.918;8.112;2023-04-20T10:42:02;90215.69;;;3.16;76.37
69909;BME280;57190;47.918;8.112;2023-04-20T10:44:28;90216.59;;;3.22;77.04
69909;BME280;57190;47.918;8.112;2023-04-20T10:46:54;90213.13;;;3.21;76.92
69909;BME280;57190;47.918;8.112;2023-04-20T10:49:25;90211.78;;;3.19;76.92
69909;BME280;57190;47.918;8.112;2023-04-20T10:51:52;90220.72;;;3.18;76.72
69909;BME280;57190;47.918;8.112;2023-04-20T10:54:18;90220.47;;;3.19;76.42
69909;BME280;57190;47.918;8.112;2023-04-20T10:56:50;90219.84;;;3.29;76.31
69909;BME280;57190;47.918;8.112;2023-04-20T10:59:19;90210.09;;;3.29;75.28
69909;BME280;57190;47.918;8.112;2023-04-20T11:01:45;90207.72;;;3.28;75.74
69909;BME280;57190;47.918;8.112;2023-04-20T11:04:11;90203.50;;;3.44;75.43
69909;BME280;57190;47.918;8.112;2023-04-20T11:06:43;90202.28;;;3.52;75.29
69909;BME280;57190;47.918;8.112;2023-04-20T11:09:16;90197.22;;;3.67;74.76
69909;BME280;57190;47.918;8.112;2023-04-20T11:11:43;90197.75;;;3.86;75.33
69909;BME280;57190;47.918;8.112;2023-04-20T11:14:10;90201.09;;;3.99;75.23
69909;BME280;57190;47.918;8.112;2023-04-20T11:16:36;90195.09;;;4.03;74.74
69909;BME280;57190;47.918;8.112;2023-04-20T11:19:02;90199.44;;;3.92;74.87
69909;BME280;57190;47.918;8.112;2023-04-20T11:21:37;90191.81;;;3.96;74.86
69909;BME280;57190;47.918;8.112;2023-04-20T11:24:04;90195.81;;;3.99;74.52
69909;BME280;57190;47.918;8.112;2023-04-20T11:26:36;90191.13;;;3.84;74.46
69909;BME280;57190;47.918;8.112;2023-04-20T11:29:02;90188.06;;;3.92;74.54
69909;BME280;57190;47.918;8.112;2023-04-20T11:31:28;90183.97;;;4.01;73.97
69909;BME280;57190;47.918;8.112;2023-04-20T11:33:54;90198.16;;;3.95;75.02
69909;BME280;57190;47.918;8.112;2023-04-20T11:36:24;90195.03;;;3.81;74.38
69909;BME280;57190;47.918;8.112;2023-04-20T11:38:53;90206.06;;;3.78;75.68
69909;BME280;57190;47.918;8.112;2023-04-20T11:41:18;90202.03;;;3.70;74.51
69909;BME280;57190;47.918;8.112;2023-04-20T11:43:44;90189.97;;;3.57;75.11
69909;BME280;57190;47.918;8.112;2023-04-20T11:46:17;90187.22;;;3.69;75.13
69909;BME280;57190;47.918;8.112;2023-04-20T11:48:45;90184.06;;;3.89;74.44
69909;BME280;57190;47.918;8.112;2023-04-20T11:51:12;90192.38;;;4.20;74.73
69909;BME280;57190;47.918;8.112;2023-04-20T11:53:38;90189.41;;;4.34;72.83
69909;BME280;57190;47.918;8.112;2023-04-20T11:56:04;90193.94;;;4.38;73.94
69909;BME280;57190;47.918;8.112;2023-04-20T11:58:30;90190.75;;;4.59;74.47
69909;BME280;57190;47.918;8.112;2023-04-20T12:00:55;90182.41;;;4.72;72.56
69909;BME280;57190;47.918;8.112;2023-04-20T12:03:21;90183.44;;;4.93;72.85
69909;BME280;57190;47.918;8.112;2023-04-20T12:05:47;90178.72;;;5.28;70.70
69909;BME280;57190;47.918;8.112;2023-04-20T12:08:12;90186.34;;;5.57;69.32
69909;BME280;57190;47.918;8.112;2023-04-20T12:10:38;90180.97;;;5.46;68.94
69909;BME280;57190;47.918;8.112;2023-04-20T12:13:04;90183.59;;;5.41;70.71
69909;BME280;57190;47.918;8.112;2023-04-20T12:15:30;90190.84;;;5.24;70.76
69909;BME280;57190;47.918;8.112;2023-04-20T12:17:56;90191.66;;;5.24;70.37
69909;BME280;57190;47.918;8.112;2023-04-20T12:20:22;90195.66;;;5.27;71.11
69909;BME280;57190;47.918;8.112;2023-04-20T12:22:47;90190.06;;;5.23;72.78
69909;BME280;57190;47.918;8.112;2023-04-20T12:25:13;90194.94;;;5.37;73.19
69909;BME280;57190;47.918;8.112;2023-04-20T12:27:38;90193.00;;;5.27;71.96
69909;BME280;57190;47.918;8.112;2023-04-20T12:30:05;90191.31;;;5.15;71.61
69909;BME280;57190;47.918;8.112;2023-04-20T12:32:31;90200.34;;;5.19;72.17
69909;BME280;57190;47.918;8.112;2023-04-20T12:34:56;90185.47;;;5.13;71.51
69909;BME280;57190;47.918;8.112;2023-04-20T12:37:23;90179.78;;;5.27;71.54
69909;BME280;57190;47.918;8.112;2023-04-20T12:39:48;90175.63;;;5.36;71.85
69909;BME280;57190;47.918;8.112;2023-04-20T12:42:14;90180.34;;;5.29;70.17
69909;BME280;57190;47.918;8.112;2023-04-20T12:44:40;90183.38;;;5.15;70.99
69909;BME280;57190;47.918;8.112;2023-04-20T12:47:05;90172.31;;;5.18;71.58
69909;BME280;57190;47.918;8.112;2023-04-20T12:49:31;90176.31;;;5.26;70.38
69909;BME280;57190;47.918;8.112;2023-04-20T12:51:56;90176.78;;;5.18;71.29
69909;BME280;57190;47.918;8.112;2023-04-20T12:54:22;90181.38;;;5.00;71.28
69909;BME280;57190;47.918;8.112;2023-04-20T12:56:47;90184.47;;;4.92;70.05
69909;BME280;57190;47.918;8.112;2023-04-20T12:59:13;90185.47;;;4.86;70.98
69909;BME280;57190;47.918;8.112;2023-04-20T13:01:39;90187.63;;;4.89;72.57
69909;BME280;57190;47.918;8.112;2023-04-20T13:04:05;90184.75;;;4.96;73.00
69909;BME280;57190;47.918;8.112;2023-04-20T13:06:30;90190.88;;;4.96;72.42
69909;BME280;57190;47.918;8.112;2023-04-20T13:08:57;90185.72;;;4.84;72.00
69909;BME280;57190;47.918;8.112;2023-04-20T13:11:22;90188.31;;;4.79;72.13
69909;BME280;57190;47.918;8.112;2023-04-20T13:13:48;90192.53;;;4.80;71.82